Aberdeen Gardens, Washington
Current Conditions -  °F | °C
As of 6:53 AM on Saturday 20 Dec 2014 (Local Time) from KHQM Reporting Station
Light Rain Light Rain  
Wind Chill:   Ceiling: 900
Heat Index:   Visibility: 2mi
Dew Point:   Wind: 9mph
Humidity: 97%   Direction: 60°ENE
Pressure: 29.56"   Gusts: NA
Location:  47.1445°N, 123.771°W
Report Text: KHQM 201453Z AUTO 06008KT 2SM -RA BR BKN009 OVC014 08/08 A2956 RMK AO2 SLP015 P0004 60017 T00830078 55005
Loading
Personal Weather Stations






























Interactive Weather Map New forecast layout! Learn more

10-Day Weather Forecast

Advertisements
Track Severe Weather on mobile